createdAt,value
2023-05-09T00:06:46.656Z,0.22
2023-05-09T00:12:34.969Z,0.30
2023-05-09T00:24:58.237Z,0.30
2023-05-09T00:30:45.032Z,0.20
2023-05-09T00:36:32.315Z,0.30
2023-05-09T00:42:20.770Z,0.10
2023-05-09T00:48:10.838Z,0.20
2023-05-09T00:53:57.657Z,0.20
2023-05-09T00:59:56.944Z,0.20
2023-05-09T01:05:50.026Z,0.40
2023-05-09T01:12:22.838Z,0.95
2023-05-09T01:18:43.402Z,0.30
2023-05-09T01:25:10.171Z,0.38
2023-05-09T01:31:10.294Z,0.20
2023-05-09T01:37:04.767Z,0.20
2023-05-09T01:43:18.535Z,0.20
2023-05-09T01:49:10.556Z,0.20
2023-05-09T01:55:03.189Z,0.30
2023-05-09T02:00:54.140Z,0.30
2023-05-09T02:06:42.744Z,0.30
2023-05-09T02:12:32.872Z,0.20
2023-05-09T02:18:29.629Z,0.15
2023-05-09T02:24:44.198Z,0.30
2023-05-09T02:30:48.576Z,0.40
2023-05-09T02:36:36.055Z,0.50
2023-05-09T02:42:25.599Z,0.35
2023-05-09T02:48:15.195Z,0.43
2023-05-09T02:54:01.909Z,0.60
2023-05-09T02:59:48.900Z,0.50
2023-05-09T03:05:39.755Z,0.60
2023-05-09T03:11:27.869Z,0.45
2023-05-09T03:17:21.559Z,0.43
2023-05-09T03:23:10.580Z,0.40
2023-05-09T03:29:05.881Z,0.30
2023-05-09T03:34:52.710Z,0.40
2023-05-09T03:40:39.765Z,0.50
2023-05-09T03:46:35.301Z,0.45
2023-05-09T03:52:23.024Z,0.68
2023-05-09T03:58:15.404Z,0.50
2023-05-09T04:04:06.717Z,0.80
2023-05-09T04:10:04.441Z,0.40
2023-05-09T04:15:51.873Z,0.50
2023-05-09T04:21:40.162Z,0.40
2023-05-09T04:27:39.458Z,0.70
2023-05-09T04:33:30.306Z,1.00
2023-05-09T04:39:23.643Z,1.40
2023-05-09T04:45:20.151Z,1.25
2023-05-09T04:51:08.213Z,1.35
2023-05-09T04:57:03.246Z,1.50
2023-05-09T05:02:57.563Z,1.40
2023-05-09T05:08:49.266Z,1.60
2023-05-09T05:14:37.986Z,1.38
2023-05-09T05:20:29.006Z,1.40
2023-05-09T05:26:18.534Z,1.58
2023-05-09T05:32:08.094Z,1.48
2023-05-09T05:37:56.350Z,1.70
2023-05-09T05:43:45.818Z,2.33
2023-05-09T05:49:39.771Z,2.92
2023-05-09T05:55:27.641Z,1.43
2023-05-09T06:01:17.444Z,1.73
2023-05-09T06:07:06.582Z,1.58
2023-05-09T06:13:00.282Z,2.00
2023-05-09T06:18:48.268Z,1.80
2023-05-09T06:24:37.122Z,1.48
2023-05-09T06:30:26.687Z,1.98
2023-05-09T06:36:21.940Z,1.85
2023-05-09T06:42:09.741Z,2.35
2023-05-09T06:48:43.940Z,2.22
2023-05-09T06:54:42.360Z,2.25
2023-05-09T07:00:29.413Z,2.50
2023-05-09T07:07:01.037Z,2.10
2023-05-09T07:12:58.142Z,2.55
2023-05-09T07:25:44.023Z,2.35
2023-05-09T07:31:37.328Z,2.30
2023-05-09T07:37:26.142Z,1.95
2023-05-09T07:43:17.790Z,2.15
2023-05-09T07:49:26.676Z,1.98
2023-05-09T07:55:20.630Z,2.00
2023-05-09T08:01:07.512Z,1.80
2023-05-09T08:07:13.269Z,1.77
2023-05-09T08:13:12.011Z,1.42
2023-05-09T08:19:07.950Z,1.55
2023-05-09T08:24:56.908Z,1.83
2023-05-09T08:30:46.593Z,1.70
2023-05-09T08:36:34.067Z,1.90
2023-05-09T08:42:25.498Z,1.85
2023-05-09T08:48:16.904Z,1.67
2023-05-09T08:54:05.610Z,1.08
2023-05-09T08:59:56.034Z,1.38
2023-05-09T09:05:44.669Z,1.40
2023-05-09T09:11:37.244Z,0.82
2023-05-09T09:23:24.100Z,0.70
2023-05-09T09:29:15.784Z,0.85
2023-05-09T09:35:10.635Z,0.82
2023-05-09T09:40:58.918Z,0.88
2023-05-09T09:46:54.255Z,0.80
2023-05-09T09:53:14.474Z,0.90
2023-05-09T09:59:14.011Z,1.15
2023-05-09T10:05:08.125Z,1.05
2023-05-09T10:10:55.236Z,1.05
2023-05-09T10:16:45.309Z,1.13
2023-05-09T10:22:33.658Z,1.67
2023-05-09T10:28:26.358Z,0.90
2023-05-09T10:34:13.642Z,1.00
2023-05-09T10:40:05.211Z,1.10
2023-05-09T10:45:55.834Z,0.98
2023-05-09T10:51:45.383Z,1.20
2023-05-09T10:57:32.821Z,1.10
2023-05-09T11:03:22.924Z,1.10
2023-05-09T11:09:38.288Z,1.30
2023-05-09T11:15:27.533Z,1.30
2023-05-09T11:21:14.765Z,1.40
2023-05-09T11:27:01.701Z,1.58
2023-05-09T11:32:59.191Z,1.10
2023-05-09T11:38:51.614Z,1.30
2023-05-09T11:44:43.240Z,1.65
2023-05-09T11:50:31.644Z,1.63
2023-05-09T11:56:21.889Z,1.40
2023-05-09T12:02:09.297Z,1.52
2023-05-09T12:08:07.400Z,1.83
2023-05-09T12:13:54.658Z,1.20
2023-05-09T12:19:41.412Z,2.00
2023-05-09T12:25:34.640Z,1.45
2023-05-09T12:31:24.932Z,1.77
2023-05-09T12:37:19.731Z,1.30
2023-05-09T12:43:07.949Z,1.55
2023-05-09T12:48:57.947Z,1.23
2023-05-09T12:54:47.902Z,1.42
2023-05-09T13:00:48.539Z,1.95
2023-05-09T13:06:48.162Z,1.80
2023-05-09T13:12:36.155Z,1.52
2023-05-09T13:18:24.542Z,1.45
2023-05-09T13:24:13.613Z,1.58
2023-05-09T13:30:01.135Z,1.45
2023-05-09T13:35:55.677Z,0.98
2023-05-09T13:41:53.478Z,1.60
2023-05-09T13:47:42.891Z,1.80
2023-05-09T13:53:33.141Z,1.52
2023-05-09T13:59:21.750Z,2.15
2023-05-09T14:05:35.931Z,1.35
2023-05-09T14:11:39.127Z,1.23
2023-05-09T14:17:33.432Z,1.50
2023-05-09T14:23:20.532Z,1.20
2023-05-09T14:29:12.927Z,1.40
2023-05-09T14:41:01.288Z,1.50
2023-05-09T14:47:04.979Z,1.30
2023-05-09T14:53:11.060Z,1.55
2023-05-09T14:58:58.515Z,1.20
2023-05-09T15:04:51.688Z,1.00
2023-05-09T15:10:38.866Z,1.40
2023-05-09T15:16:26.844Z,1.40
2023-05-09T15:22:15.269Z,1.10
2023-05-09T15:28:04.427Z,1.38
2023-05-09T15:33:51.735Z,1.48
2023-05-09T15:39:43.768Z,1.25
2023-05-09T15:45:45.308Z,0.93
2023-05-09T15:51:37.869Z,0.68
2023-05-09T15:57:28.826Z,1.00
2023-05-09T16:03:20.930Z,1.10
2023-05-09T16:09:08.845Z,0.63
2023-05-09T16:14:55.956Z,0.55
2023-05-09T16:20:45.449Z,0.60
2023-05-09T16:26:32.936Z,0.73
2023-05-09T16:32:32.068Z,1.00
2023-05-09T16:45:57.443Z,0.93
2023-05-09T17:05:53.172Z,0.55
2023-05-09T17:12:37.564Z,0.40
2023-05-09T17:34:36.624Z,0.47
2023-05-09T17:40:42.574Z,0.40
2023-05-09T17:47:14.210Z,0.60
2023-05-09T17:53:39.558Z,0.57
2023-05-09T17:59:28.811Z,0.40
2023-05-09T18:05:26.685Z,0.77
2023-05-09T18:11:14.752Z,1.05
2023-05-09T18:17:02.648Z,0.57
2023-05-09T18:22:52.351Z,0.73
2023-05-09T18:28:39.894Z,1.00
2023-05-09T18:34:28.335Z,0.82
2023-05-09T18:40:16.216Z,0.82
2023-05-09T18:46:03.833Z,0.77
2023-05-09T18:51:51.013Z,0.60
2023-05-09T18:57:51.557Z,0.90
2023-05-09T19:03:46.222Z,0.60
2023-05-09T19:09:34.142Z,1.20
2023-05-09T19:24:05.315Z,0.50
2023-05-09T19:29:13.745Z,0.70
2023-05-09T19:35:01.260Z,0.93
2023-05-09T19:40:48.425Z,0.80
2023-05-09T19:46:39.995Z,0.57
2023-05-09T19:52:27.910Z,0.73
2023-05-09T19:58:17.441Z,0.60
2023-05-09T20:04:04.995Z,0.75
2023-05-09T20:09:53.326Z,0.50
2023-05-09T20:15:42.510Z,0.70
2023-05-09T20:21:44.655Z,1.23
2023-05-09T20:27:40.056Z,1.00
2023-05-09T20:41:05.408Z,1.33
2023-05-09T20:47:16.025Z,1.20
2023-05-09T20:59:43.636Z,1.23
2023-05-09T21:05:52.702Z,1.70
2023-05-09T21:12:23.447Z,1.50
2023-05-09T21:18:44.667Z,1.25
2023-05-09T21:24:31.550Z,1.77
2023-05-09T21:30:18.536Z,1.40
2023-05-09T21:36:11.194Z,0.80
2023-05-09T21:42:02.351Z,1.17
2023-05-09T21:47:51.402Z,1.15
2023-05-09T21:53:41.200Z,1.40
2023-05-09T21:59:28.205Z,1.27
2023-05-09T22:05:44.045Z,1.35
2023-05-09T22:11:30.915Z,1.20
2023-05-09T22:17:17.981Z,1.92
2023-05-09T22:23:33.395Z,1.75
2023-05-09T22:29:27.985Z,1.48
2023-05-09T22:36:54.442Z,1.42
2023-05-09T22:48:30.254Z,1.13
2023-05-09T22:54:21.618Z,1.40
2023-05-09T23:00:21.150Z,1.25
2023-05-09T23:06:08.356Z,1.10
2023-05-09T23:11:59.627Z,1.05
2023-05-09T23:17:47.912Z,1.23
2023-05-09T23:23:37.152Z,1.13
2023-05-09T23:29:25.524Z,1.20
2023-05-09T23:35:13.809Z,1.45
2023-05-09T23:41:01.333Z,2.55
2023-05-09T23:46:48.217Z,1.27
2023-05-09T23:52:37.154Z,2.00
2023-05-09T23:58:23.877Z,1.48
